Time;durP1;ratioP1;P1;durP2;ratioP2;P2;SDS_P1;SDS_P2;PMS_P1;PMS_P2;Temp;Humidity;BMP_temperature;BMP_pressure;BME280_temperature;BME280_humidity;BME280_pressure;Samples;Min_cycle;Max_cycle;Signal;HPM_P1;HPM_P2
2021/08/20 00:01:20;;;;;;;2.80;2.60;;;;;;;26.25;43.07;95421.69;5029656;28;20017;-67
2021/08/20 00:03:45;;;;;;;2.65;2.45;;;;;;;25.87;43.67;95413.31;5015430;28;20029;-67
2021/08/20 00:06:11;;;;;;;3.50;2.63;;;;;;;25.84;43.41;95403.19;5027006;28;20064;-67
2021/08/20 00:08:37;;;;;;;2.88;2.67;;;;;;;25.81;43.12;95403.25;5029506;28;20034;-67
2021/08/20 00:11:03;;;;;;;3.20;2.30;;;;;;;25.96;43.16;95409.41;5029616;28;20045;-67
2021/08/20 00:13:32;;;;;;;2.72;2.47;;;;;;;25.97;43.18;95402.78;5011820;28;20108;-67
2021/08/20 00:15:58;;;;;;;2.42;2.20;;;;;;;25.94;43.31;95390.72;5030831;28;20056;-68
2021/08/20 00:18:24;;;;;;;3.20;2.35;;;;;;;26.08;43.11;95384.41;5028729;28;20499;-68
2021/08/20 00:20:50;;;;;;;2.95;2.45;;;;;;;26.10;43.19;95377.41;5011362;28;20038;-68
2021/08/20 00:23:16;;;;;;;3.35;2.55;;;;;;;26.22;43.32;95399.94;5029167;28;20045;-67
2021/08/20 00:25:41;;;;;;;2.45;2.25;;;;;;;25.97;43.24;95389.16;5010994;28;20065;-67
2021/08/20 00:28:07;;;;;;;4.10;2.63;;;;;;;26.10;43.23;95395.69;5031199;28;20133;-67
2021/08/20 00:30:32;;;;;;;2.60;2.40;;;;;;;26.04;43.64;95384.44;5028852;28;20057;-67
2021/08/20 00:32:57;;;;;;;2.85;2.65;;;;;;;26.18;43.54;95397.97;5028551;28;20042;-67
2021/08/20 00:35:23;;;;;;;2.85;2.65;;;;;;;26.04;43.40;95389.88;5028934;28;20041;-67
2021/08/20 00:37:48;;;;;;;3.72;2.85;;;;;;;26.06;44.04;95397.69;5028826;28;20057;-67
2021/08/20 00:40:13;;;;;;;3.20;2.90;;;;;;;26.00;43.66;95385.63;5030934;28;20034;-67
2021/08/20 00:42:39;;;;;;;2.33;2.13;;;;;;;26.03;43.80;95401.19;5027647;28;20034;-67
2021/08/20 00:45:05;;;;;;;3.72;2.90;;;;;;;25.93;43.86;95400.06;5028943;28;20109;-67
2021/08/20 00:47:31;;;;;;;2.67;2.47;;;;;;;25.47;44.22;95351.97;5028278;28;20029;-69
2021/08/20 00:49:56;;;;;;;3.30;3.00;;;;;;;25.65;44.40;95388.09;5023141;28;20495;-68
2021/08/20 00:52:23;;;;;;;2.95;2.72;;;;;;;25.60;44.96;95390.44;5028814;28;20108;-68
2021/08/20 00:54:48;;;;;;;3.58;3.28;;;;;;;25.65;45.23;95401.72;5030547;28;20017;-70
2021/08/20 00:57:16;;;;;;;3.65;3.35;;;;;;;25.67;45.32;95393.13;5028795;28;20036;-68
2021/08/20 00:59:42;;;;;;;3.17;2.97;;;;;;;25.67;45.21;95384.97;5028830;28;20029;-68
2021/08/20 01:02:07;;;;;;;3.15;2.95;;;;;;;25.77;45.26;95391.56;5028345;28;20399;-68
2021/08/20 01:04:35;;;;;;;3.15;2.95;;;;;;;25.72;45.28;95381.84;5028282;28;20017;-68
2021/08/20 01:07:02;;;;;;;3.47;3.17;;;;;;;25.72;45.23;95373.66;5030311;28;20024;-68
2021/08/20 01:09:27;;;;;;;4.40;3.50;;;;;;;25.76;45.29;95385.34;5028419;28;20041;-68
2021/08/20 01:11:53;;;;;;;3.08;2.85;;;;;;;25.69;45.37;95377.16;5028422;28;20111;-68
2021/08/20 01:14:35;;;;;;;3.50;3.20;;;;;;;25.69;45.31;95388.06;5028287;28;20045;-67
2021/08/20 01:17:03;;;;;;;3.83;2.83;;;;;;;25.56;45.65;95365.16;5028172;28;20140;-68
2021/08/20 01:19:33;;;;;;;3.72;3.22;;;;;;;25.45;45.88;95367.16;5027905;28;20027;-68
2021/08/20 01:21:59;;;;;;;3.78;3.47;;;;;;;25.42;46.15;95371.44;5030027;28;20033;-68
2021/08/20 01:24:25;;;;;;;3.97;2.83;;;;;;;25.28;46.34;95355.13;5010215;28;20577;-68
2021/08/20 01:26:52;;;;;;;3.63;3.33;;;;;;;25.24;46.63;95359.84;5028307;28;20076;-68
2021/08/20 01:29:19;;;;;;;3.22;3.00;;;;;;;25.20;46.65;95362.56;5028231;28;20134;-68
2021/08/20 01:31:45;;;;;;;3.78;3.47;;;;;;;25.07;47.01;95362.19;5028357;28;20037;-68
2021/08/20 01:34:11;;;;;;;3.95;3.65;;;;;;;24.95;46.96;95365.28;5029546;28;20032;-69
2021/08/20 01:36:37;;;;;;;3.80;3.50;;;;;;;24.71;47.40;95350.53;5028165;28;20041;-67
2021/08/20 01:39:02;;;;;;;5.40;4.18;;;;;;;24.62;47.27;95353.66;5028325;28;20088;-68
2021/08/20 01:41:29;;;;;;;4.32;4.03;;;;;;;24.54;47.66;95362.97;5029877;28;20387;-67
2021/08/20 01:43:55;;;;;;;4.05;3.75;;;;;;;24.54;48.05;95364.91;5032465;28;20132;-68
2021/08/20 01:46:20;;;;;;;3.67;3.35;;;;;;;24.39;47.83;95361.41;5031933;28;20016;-68
2021/08/20 01:48:48;;;;;;;4.40;3.92;;;;;;;24.29;48.32;95349.34;5033705;28;20026;-68
2021/08/20 01:51:14;;;;;;;5.85;4.00;;;;;;;24.29;47.96;95359.44;5032249;28;20034;-67
2021/08/20 01:53:42;;;;;;;4.90;4.40;;;;;;;24.24;48.36;95371.47;5032292;28;20080;-67
2021/08/20 01:56:18;;;;;;;4.00;3.70;;;;;;;24.09;48.58;95367.94;5031750;28;20120;-67
2021/08/20 01:58:45;;;;;;;5.38;3.88;;;;;;;23.83;49.16;95351.97;5031974;28;20026;-67
2021/08/20 02:01:11;;;;;;;4.60;4.20;;;;;;;23.88;49.30;95353.53;5034104;28;20479;-67
2021/08/20 02:03:36;;;;;;;5.10;4.32;;;;;;;23.80;49.21;95350.00;5031776;28;20128;-68
2021/08/20 02:06:02;;;;;;;5.35;4.43;;;;;;;23.83;49.18;95362.84;5031439;28;20090;-68
2021/08/20 02:08:27;;;;;;;5.07;4.68;;;;;;;23.79;49.23;95362.81;5031692;28;20041;-68
2021/08/20 02:10:55;;;;;;;4.38;3.97;;;;;;;23.78;49.81;95358.53;5031860;28;20128;-68
2021/08/20 02:13:21;;;;;;;4.10;3.80;;;;;;;23.86;49.58;95357.41;5031947;28;20161;-68
2021/08/20 02:15:46;;;;;;;4.10;3.70;;;;;;;24.01;49.68;95350.09;5033334;28;20036;-68
2021/08/20 02:18:12;;;;;;;3.80;3.45;;;;;;;24.18;49.73;95347.78;5031275;28;20041;-69
2021/08/20 02:20:40;;;;;;;4.18;3.65;;;;;;;24.29;49.06;95346.63;5031581;28;20049;-68
2021/08/20 02:23:06;;;;;;;4.10;3.70;;;;;;;24.40;48.93;95348.59;5031936;28;20399;-67
2021/08/20 02:25:32;;;;;;;4.03;3.53;;;;;;;24.46;48.71;95345.09;5031338;28;20069;-67
2021/08/20 02:27:57;;;;;;;4.00;3.70;;;;;;;24.44;48.80;95347.44;5033572;28;20061;-67
2021/08/20 02:30:22;;;;;;;5.07;4.57;;;;;;;24.46;48.52;95352.47;5031542;28;20120;-67
2021/08/20 02:32:48;;;;;;;5.03;4.35;;;;;;;24.34;48.58;95340.03;5031106;28;20103;-68
2021/08/20 02:35:13;;;;;;;5.85;3.80;;;;;;;24.32;48.11;95343.13;5026967;28;20048;-68
2021/08/20 02:37:38;;;;;;;4.60;4.20;;;;;;;24.15;48.86;95349.31;5030276;28;20037;-68
2021/08/20 02:40:04;;;;;;;5.60;3.80;;;;;;;24.08;49.04;95363.66;5032911;28;20438;-67
2021/08/20 02:42:30;;;;;;;5.63;4.25;;;;;;;24.00;49.21;95361.31;5031289;28;20040;-68
2021/08/20 02:44:55;;;;;;;4.82;4.32;;;;;;;23.92;49.03;95362.47;5029783;28;20057;-67
2021/08/20 02:47:20;;;;;;;5.18;4.70;;;;;;;23.89;49.37;95363.22;5031103;28;20368;-68
2021/08/20 02:49:47;;;;;;;5.53;5.03;;;;;;;23.83;49.13;95363.59;5030540;28;20041;-68
2021/08/20 02:52:12;;;;;;;7.50;5.50;;;;;;;23.71;49.35;95353.09;5011453;28;20058;-68
2021/08/20 02:54:37;;;;;;;6.30;5.22;;;;;;;23.64;49.53;95360.44;5010454;28;20128;-68
2021/08/20 02:57:03;;;;;;;5.95;5.45;;;;;;;23.62;49.96;95358.06;5011008;28;20583;-67
2021/08/20 02:59:28;;;;;;;5.63;5.13;;;;;;;23.53;49.73;95354.94;5009764;28;20712;-68
2021/08/20 03:01:54;;;;;;;5.72;5.13;;;;;;;23.64;49.72;95350.34;5011260;28;20041;-67
2021/08/20 03:04:19;;;;;;;6.43;5.65;;;;;;;23.64;49.98;95355.00;5016093;28;20083;-67
2021/08/20 03:06:44;;;;;;;5.38;4.88;;;;;;;23.59;49.71;95350.69;5017259;28;20018;-67
2021/08/20 03:09:11;;;;;;;5.40;4.88;;;;;;;23.61;49.73;95345.66;5011067;28;20080;-67
2021/08/20 03:11:36;;;;;;;5.40;4.13;;;;;;;23.29;49.83;95308.31;5011058;28;20590;-68
2021/08/20 03:14:02;;;;;;;6.38;5.07;;;;;;;23.65;50.04;95361.97;5011331;28;20030;-67
2021/08/20 03:16:28;;;;;;;6.18;5.65;;;;;;;23.56;49.73;95356.91;5010603;28;20364;-69
2021/08/20 03:18:53;;;;;;;5.95;5.45;;;;;;;23.61;49.62;95362.72;5021860;28;20029;-68
2021/08/20 03:21:18;;;;;;;8.80;4.90;;;;;;;23.63;49.73;95367.81;5030384;28;20049;-67
2021/08/20 03:23:44;;;;;;;6.05;5.45;;;;;;;23.66;49.96;95358.91;5030467;28;20509;-68
2021/08/20 03:26:09;;;;;;;5.57;5.07;;;;;;;23.62;50.07;95358.06;5029949;28;20057;-67
2021/08/20 03:28:34;;;;;;;5.32;4.82;;;;;;;23.73;49.73;95360.84;5030288;28;20057;-67
2021/08/20 03:31:00;;;;;;;4.50;4.10;;;;;;;23.75;49.96;95356.63;5032287;28;20030;-68
2021/08/20 03:33:25;;;;;;;5.20;4.70;;;;;;;23.75;49.39;95339.50;5012271;28;20041;-68
2021/08/20 03:35:51;;;;;;;5.03;4.60;;;;;;;23.80;49.16;95350.81;5028228;28;20391;-68
2021/08/20 03:38:16;;;;;;;5.15;4.80;;;;;;;23.88;49.40;95364.41;5028878;28;20060;-68
2021/08/20 03:40:41;;;;;;;6.00;5.40;;;;;;;23.78;49.20;95344.97;5030187;28;20038;-67
2021/08/20 03:43:07;;;;;;;4.95;4.60;;;;;;;23.82;49.31;95353.13;5031886;28;20144;-68
2021/08/20 03:45:32;;;;;;;4.50;4.20;;;;;;;23.86;49.23;95349.28;5029791;28;20044;-68
2021/08/20 03:47:57;;;;;;;5.13;4.30;;;;;;;23.93;49.12;95359.38;5029620;28;20038;-68
2021/08/20 03:50:23;;;;;;;5.60;5.05;;;;;;;24.05;48.76;95367.16;5029652;28;20026;-69
2021/08/20 03:52:48;;;;;;;5.50;4.88;;;;;;;24.03;48.80;95366.00;5012401;28;20034;-69
2021/08/20 03:55:13;;;;;;;5.97;4.90;;;;;;;23.88;48.87;95353.53;5013638;28;20032;-67
2021/08/20 03:57:39;;;;;;;5.68;5.07;;;;;;;23.81;48.82;95357.00;5029731;28;20507;-68
2021/08/20 04:00:08;;;;;;;6.18;4.80;;;;;;;23.79;48.68;95379.09;5011832;28;20522;-68
2021/08/20 04:02:33;;;;;;;7.95;6.25;;;;;;;23.73;48.81;95386.06;5030003;28;20033;-68
2021/08/20 04:04:59;;;;;;;7.03;5.93;;;;;;;23.73;49.05;95385.31;5028812;28;20092;-68
2021/08/20 04:07:25;;;;;;;6.05;4.63;;;;;;;23.67;49.05;95393.03;5029142;28;20430;-68
2021/08/20 04:09:50;;;;;;;6.10;4.65;;;;;;;23.59;49.37;95370.47;5013601;28;20030;-67
2021/08/20 04:12:16;;;;;;;6.07;4.88;;;;;;;23.46;49.35;95392.91;5029800;28;20193;-68
2021/08/20 04:14:41;;;;;;;4.75;4.40;;;;;;;23.61;49.65;95380.97;5029249;28;20116;-67
2021/08/20 04:17:07;;;;;;;5.30;4.82;;;;;;;23.34;49.90;95385.88;5029347;28;20049;-67
2021/08/20 04:19:32;;;;;;;6.55;4.47;;;;;;;23.21;49.91;95392.78;5029011;28;20387;-68
2021/08/20 04:21:58;;;;;;;7.13;4.35;;;;;;;23.50;49.66;95401.88;5031305;28;20044;-68
2021/08/20 04:24:23;;;;;;;6.18;4.72;;;;;;;23.67;49.00;95389.56;5029076;28;20533;-67
2021/08/20 04:26:49;;;;;;;5.40;4.90;;;;;;;23.61;49.15;95391.84;5029404;28;20038;-67
2021/08/20 04:29:14;;;;;;;6.72;4.97;;;;;;;22.96;50.26;95398.03;5029253;28;20038;-68
2021/08/20 04:31:40;;;;;;;4.60;4.20;;;;;;;23.19;49.99;95401.31;5029071;28;20368;-68
2021/08/20 04:34:05;;;;;;;5.15;4.75;;;;;;;23.68;49.57;95388.38;5030531;28;20022;-67
2021/08/20 04:36:30;;;;;;;5.72;5.03;;;;;;;24.00;49.14;95393.91;5028832;28;20034;-68
2021/08/20 04:38:56;;;;;;;5.78;4.47;;;;;;;23.96;48.23;95401.31;5028943;28;20080;-67
2021/08/20 04:41:21;;;;;;;5.05;4.65;;;;;;;23.38;48.64;95411.09;5029085;28;20557;-68
2021/08/20 04:43:46;;;;;;;6.00;4.65;;;;;;;23.57;49.01;95410.03;5028971;28;20095;-67
2021/08/20 04:46:12;;;;;;;5.20;4.70;;;;;;;23.28;49.55;95407.16;5030349;28;20112;-67
2021/08/20 04:48:37;;;;;;;5.55;4.15;;;;;;;22.64;51.18;95411.34;5028442;28;20529;-68
2021/08/20 04:51:03;;;;;;;5.03;4.05;;;;;;;22.81;50.71;95410.69;5028738;28;20037;-68
2021/08/20 04:53:30;;;;;;;6.38;5.15;;;;;;;23.49;49.95;95411.94;5028755;28;20499;-67
2021/08/20 04:55:57;;;;;;;4.78;4.38;;;;;;;23.20;50.28;95397.44;5010653;28;20056;-68
2021/08/20 04:58:22;;;;;;;5.22;4.43;;;;;;;23.54;49.38;95405.34;5028748;28;20562;-68
2021/08/20 05:00:48;;;;;;;5.28;4.18;;;;;;;22.86;50.69;95423.91;5030669;28;20032;-67
2021/08/20 05:03:14;;;;;;;5.38;4.88;;;;;;;23.23;50.36;95423.03;5028396;28;20042;-68
2021/08/20 05:05:41;;;;;;;6.63;4.20;;;;;;;23.67;49.18;95405.84;5021685;28;20029;-68
2021/08/20 05:08:07;;;;;;;4.78;4.32;;;;;;;23.56;48.91;95417.41;5028542;28;20688;-67
2021/08/20 05:10:32;;;;;;;5.25;4.40;;;;;;;23.59;48.82;95426.72;5028546;28;20104;-67
2021/08/20 05:12:58;;;;;;;5.68;4.22;;;;;;;23.84;48.26;95414.06;5030854;28;20101;-68
2021/08/20 05:15:26;;;;;;;5.65;4.72;;;;;;;24.00;48.27;95423.81;5010078;28;20040;-68
2021/08/20 05:17:52;;;;;;;4.70;4.30;;;;;;;24.34;47.46;95416.91;5028058;28;20036;-68
2021/08/20 05:20:18;;;;;;;6.57;3.88;;;;;;;24.71;46.91;95425.91;5027798;28;20095;-68
2021/08/20 05:22:52;;;;;;;6.20;4.05;;;;;;;24.99;46.62;95431.38;5028086;28;20638;-67
2021/08/20 05:25:18;;;;;;;3.33;3.10;;;;;;;25.20;45.48;95443.44;5028221;28;20476;-68
2021/08/20 05:27:44;;;;;;;5.00;3.83;;;;;;;25.07;45.12;95396.78;5030072;28;20048;-66
2021/08/20 05:30:10;;;;;;;4.85;4.45;;;;;;;25.30;44.56;95418.91;5028067;28;20045;-72
2021/08/20 05:32:36;;;;;;;5.57;4.20;;;;;;;25.55;44.02;95420.81;5028412;28;20080;-67
2021/08/20 05:35:02;;;;;;;4.68;4.28;;;;;;;25.58;44.18;95422.75;5027794;28;20073;-74
2021/08/20 05:37:31;;;;;;;4.15;3.70;;;;;;;25.98;43.89;95448.72;5007575;28;20056;-66
2021/08/20 05:39:56;;;;;;;4.22;3.83;;;;;;;26.19;43.65;95450.56;5010348;28;20034;-64
2021/08/20 05:42:22;;;;;;;5.13;4.13;;;;;;;26.33;43.59;95444.25;5007433;28;20181;-64
2021/08/20 05:44:47;;;;;;;3.95;3.65;;;;;;;26.50;42.89;95442.63;5008383;28;20073;-64
2021/08/20 05:47:12;;;;;;;3.78;3.47;;;;;;;26.59;42.07;95449.19;5007951;28;20045;-64
2021/08/20 05:49:38;;;;;;;4.45;4.05;;;;;;;26.69;41.67;95444.84;5017721;28;20033;-64
2021/08/20 05:52:03;;;;;;;5.20;3.65;;;;;;;26.80;41.52;95433.84;5029782;28;20471;-67
2021/08/20 05:54:29;;;;;;;5.68;3.88;;;;;;;26.92;41.91;95442.34;5010016;28;20053;-68
2021/08/20 05:56:55;;;;;;;4.03;3.63;;;;;;;27.04;41.59;95443.03;5027918;28;20104;-66
2021/08/20 05:59:20;;;;;;;3.95;3.65;;;;;;;27.06;41.43;95438.69;5027924;28;20542;-68
2021/08/20 06:01:46;;;;;;;4.82;3.50;;;;;;;27.24;40.62;95443.28;5010309;28;20057;-66
2021/08/20 06:04:11;;;;;;;5.25;3.90;;;;;;;27.30;40.79;95436.19;5027859;28;20030;-68
2021/08/20 06:06:38;;;;;;;6.05;4.28;;;;;;;27.38;40.56;95435.72;5020609;28;20113;-66
2021/08/20 06:09:04;;;;;;;5.35;4.07;;;;;;;27.43;40.36;95437.97;5028006;28;20088;-66
2021/08/20 06:11:30;;;;;;;5.60;4.20;;;;;;;27.50;40.17;95442.63;5027968;28;20651;-66
2021/08/20 06:13:55;;;;;;;4.57;4.18;;;;;;;27.49;40.01;95438.34;5026761;28;20140;-67
2021/08/20 06:16:26;;;;;;;4.28;3.90;;;;;;;27.59;40.01;95440.19;5026239;28;20690;-69
2021/08/20 06:18:52;;;;;;;5.82;3.97;;;;;;;27.75;39.44;95425.22;5029379;28;20096;-67
2021/08/20 06:21:17;;;;;;;4.10;3.70;;;;;;;27.90;39.72;95421.91;5022822;28;20136;-68
2021/08/20 06:23:43;;;;;;;5.45;3.33;;;;;;;28.11;39.82;95422.81;5027575;28;20407;-72
2021/08/20 06:26:08;;;;;;;3.60;3.20;;;;;;;28.31;39.32;95426.47;5008398;28;20034;-74
2021/08/20 06:28:33;;;;;;;5.15;3.25;;;;;;;28.67;38.91;95428.72;5030565;28;20037;-69
2021/08/20 06:31:03;;;;;;;5.10;3.03;;;;;;;28.92;38.22;95441.97;5033399;28;20026;-66
2021/08/20 06:33:30;;;;;;;4.97;3.08;;;;;;;29.11;38.08;95444.06;5031416;28;20049;-65
2021/08/20 06:35:55;;;;;;;5.50;3.75;;;;;;;29.18;37.45;95448.66;5030273;28;20052;-68
2021/08/20 06:38:20;;;;;;;4.97;3.78;;;;;;;29.12;37.72;95439.34;5013348;28;20037;-67
2021/08/20 06:40:46;;;;;;;3.83;3.53;;;;;;;29.34;37.78;95448.00;5031267;28;20049;-68
2021/08/20 06:43:11;;;;;;;3.80;3.35;;;;;;;29.35;37.33;95441.31;5015061;28;20021;-68
2021/08/20 06:45:36;;;;;;;4.40;3.92;;;;;;;29.33;36.93;95440.94;5030938;28;20037;-68
2021/08/20 06:48:02;;;;;;;3.95;3.58;;;;;;;29.52;36.98;95465.66;5031064;28;20708;-68
2021/08/20 06:50:27;;;;;;;7.40;4.18;;;;;;;29.37;37.05;95464.34;5030221;28;20400;-68
2021/08/20 06:52:53;;;;;;;4.57;4.18;;;;;;;28.90;38.11;95439.66;5031122;28;20045;-68
2021/08/20 06:55:20;;;;;;;4.70;4.00;;;;;;;28.01;39.87;95442.88;5030951;28;20029;-68
2021/08/20 06:57:45;;;;;;;5.20;4.45;;;;;;;27.73;40.55;95458.41;5032776;28;20026;-68
2021/08/20 07:00:11;;;;;;;6.15;4.00;;;;;;;27.99;40.19;95457.69;5030739;28;20030;-68
2021/08/20 07:02:44;;;;;;;5.40;4.03;;;;;;;28.58;39.68;95467.53;5030809;28;20100;-68
2021/08/20 07:05:11;;;;;;;5.50;5.00;;;;;;;28.26;39.86;95467.94;5030214;28;20575;-68
2021/08/20 07:07:37;;;;;;;5.18;4.70;;;;;;;28.17;40.19;95435.63;5030658;28;20113;-68
2021/08/20 07:10:06;;;;;;;4.25;3.92;;;;;;;26.75;42.89;95462.34;5032763;28;20112;-68
2021/08/20 07:12:31;;;;;;;5.05;4.38;;;;;;;26.78;43.17;95447.13;5030798;28;20116;-69
2021/08/20 07:14:57;;;;;;;7.15;5.70;;;;;;;25.74;46.21;95458.47;5030570;28;20128;-68
2021/08/20 07:17:22;;;;;;;7.78;4.55;;;;;;;26.22;45.23;95471.59;5012437;28;20086;-69
2021/08/20 07:19:47;;;;;;;7.63;4.97;;;;;;;27.34;42.78;95470.47;5014429;28;20688;-69
2021/08/20 07:22:13;;;;;;;10.20;5.40;;;;;;;27.99;41.59;95478.81;5032136;28;20034;-68
2021/08/20 07:24:38;;;;;;;4.85;4.40;;;;;;;28.32;41.12;95452.63;5030574;28;20042;-69
2021/08/20 07:27:04;;;;;;;4.57;4.18;;;;;;;28.85;40.00;95464.00;5030168;28;20172;-68
2021/08/20 07:29:29;;;;;;;7.20;4.63;;;;;;;29.28;38.98;95455.94;5030337;28;20033;-68
2021/08/20 07:31:54;;;;;;;5.18;4.65;;;;;;;29.42;38.20;95463.09;5030344;28;20044;-68
2021/08/20 07:34:20;;;;;;;5.70;4.53;;;;;;;29.35;37.59;95465.97;5029570;28;20029;-68
2021/08/20 07:36:45;;;;;;;5.30;4.43;;;;;;;29.77;37.48;95476.19;5031702;28;20048;-68
2021/08/20 07:39:10;;;;;;;5.80;4.38;;;;;;;30.07;37.02;95465.44;5029441;28;20045;-70
2021/08/20 07:41:36;;;;;;;6.95;4.70;;;;;;;30.28;36.62;95457.56;5030314;28;20034;-68
2021/08/20 07:44:01;;;;;;;5.38;4.15;;;;;;;30.50;35.95;95444.16;5030111;28;20484;-68
2021/08/20 07:46:27;;;;;;;4.82;4.28;;;;;;;30.81;35.92;95460.34;5029611;28;20080;-70
2021/08/20 07:48:52;;;;;;;5.05;4.55;;;;;;;30.52;35.56;95469.22;5031882;28;20479;-67
2021/08/20 07:51:17;;;;;;;4.85;4.35;;;;;;;30.24;35.85;95429.44;5029485;28;20041;-70
2021/08/20 07:53:43;;;;;;;4.55;4.15;;;;;;;30.51;35.60;95448.47;5030225;28;20078;-73
2021/08/20 07:56:08;;;;;;;8.23;4.80;;;;;;;30.50;35.82;95479.84;5030314;28;20125;-72
2021/08/20 07:58:33;;;;;;;5.18;4.78;;;;;;;29.70;36.60;95470.09;5030089;28;20022;-69
2021/08/20 08:00:59;;;;;;;6.70;5.00;;;;;;;30.01;37.05;95478.88;5031797;28;20083;-68
2021/08/20 08:03:24;;;;;;;5.25;4.70;;;;;;;30.14;36.88;95482.56;5029986;28;20056;-67
2021/08/20 08:05:49;;;;;;;5.70;5.05;;;;;;;29.52;37.71;95473.09;5029928;28;20037;-68
2021/08/20 08:08:15;;;;;;;5.43;4.07;;;;;;;29.99;37.10;95482.06;5008888;28;20050;-67
2021/08/20 08:10:41;;;;;;;4.50;4.10;;;;;;;29.33;38.42;95485.59;5009448;28;20101;-75
2021/08/20 08:13:06;;;;;;;4.85;4.45;;;;;;;29.54;38.09;95470.75;5011832;28;20235;-71
2021/08/20 08:15:32;;;;;;;5.20;4.60;;;;;;;30.50;36.10;95482.59;5009326;28;20041;-63
2021/08/20 08:17:57;;;;;;;4.78;4.30;;;;;;;30.23;36.50;95482.78;5009730;28;20133;-63
2021/08/20 08:20:23;;;;;;;4.13;3.83;;;;;;;30.50;36.22;95481.81;5019821;28;20068;-63
2021/08/20 08:22:49;;;;;;;5.13;4.22;;;;;;;29.80;37.46;95485.56;5011266;28;20045;-63
2021/08/20 08:25:16;;;;;;;4.97;4.22;;;;;;;30.07;36.93;95479.94;5030888;28;20036;-64
2021/08/20 08:28:00;;;;;;;5.00;4.60;;;;;;;28.69;39.55;95492.78;5029131;28;20483;-65
2021/08/20 08:30:28;;;;;;;4.93;4.43;;;;;;;29.24;38.30;95493.56;5029154;28;20546;-65
2021/08/20 08:32:58;;;;;;;5.28;4.80;;;;;;;30.20;36.78;95500.09;5028896;28;20037;-65
2021/08/20 08:35:24;;;;;;;6.40;4.95;;;;;;;28.74;39.34;95497.03;5028154;28;20037;-65
2021/08/20 08:37:49;;;;;;;5.80;5.30;;;;;;;28.88;39.65;95507.78;5028680;28;20098;-64
2021/08/20 08:40:15;;;;;;;4.65;4.25;;;;;;;28.06;40.78;95508.03;5031055;28;20029;-65
2021/08/20 08:42:40;;;;;;;11.55;4.85;;;;;;;29.52;38.36;95490.31;5011712;28;20072;-65
2021/08/20 08:45:07;;;;;;;5.95;5.40;;;;;;;29.60;37.64;95491.00;5028529;28;20653;-65
2021/08/20 08:47:34;;;;;;;5.78;5.28;;;;;;;29.06;38.82;95504.78;5028478;28;20104;-66
2021/08/20 08:50:02;;;;;;;6.43;5.15;;;;;;;28.84;39.93;95512.53;5010121;28;20106;-66
2021/08/20 08:52:27;;;;;;;5.88;5.28;;;;;;;27.80;41.54;95521.22;5019965;28;20021;-65
2021/08/20 08:54:53;;;;;;;6.10;5.55;;;;;;;27.78;41.75;95514.59;5012662;28;20028;-65
2021/08/20 08:57:18;;;;;;;5.07;4.65;;;;;;;28.17;41.47;95508.69;5028353;28;20484;-66
2021/08/20 08:59:44;;;;;;;5.90;5.40;;;;;;;28.79;39.68;95482.88;5028576;28;20084;-66
2021/08/20 09:02:22;;;;;;;5.85;5.32;;;;;;;28.22;39.71;95516.44;5010702;28;20041;-65
2021/08/20 09:04:54;;;;;;;6.18;5.68;;;;;;;30.02;37.44;95507.84;5028050;28;20053;-66
2021/08/20 09:07:21;;;;;;;5.80;5.20;;;;;;;30.31;36.96;95501.84;5028014;28;20025;-65
2021/08/20 09:09:46;;;;;;;5.32;4.82;;;;;;;30.11;36.82;95507.31;5030394;28;20040;-65
2021/08/20 09:12:26;;;;;;;8.15;4.97;;;;;;;29.73;37.59;95497.41;5028310;28;20041;-65
2021/08/20 09:14:56;;;;;;;7.25;5.03;;;;;;;29.27;38.13;95503.66;5028480;28;20495;-75
2021/08/20 09:17:35;;;;;;;5.38;4.93;;;;;;;29.35;38.52;95502.38;5028354;28;20103;-73
2021/08/20 09:20:20;;;;;;;7.13;5.32;;;;;;;30.15;37.65;95505.28;5028308;28;20041;-71
2021/08/20 09:22:47;;;;;;;5.47;4.97;;;;;;;28.07;41.09;95517.78;5021810;28;20037;-74
2021/08/20 09:25:32;;;;;;;6.03;5.63;;;;;;;28.62;40.00;95514.03;5029800;28;20022;-67
2021/08/20 09:28:27;;;;;;;7.38;5.63;;;;;;;29.09;39.05;95514.16;5028532;28;20112;-69
2021/08/20 09:30:55;;;;;;;6.80;6.10;;;;;;;29.58;38.15;95509.81;5028627;28;20044;-69
2021/08/20 09:33:33;;;;;;;6.32;5.72;;;;;;;29.86;37.81;95497.59;5028205;28;20360;-72
2021/08/20 09:36:08;;;;;;;7.25;5.72;;;;;;;30.23;36.99;95498.47;5027310;28;20037;-73
2021/08/20 09:38:37;;;;;;;7.43;5.32;;;;;;;30.40;37.40;95499.28;5027826;28;20321;-68
2021/08/20 09:41:07;;;;;;;6.38;5.80;;;;;;;30.53;35.44;95492.72;5028049;28;20508;-70
2021/08/20 09:43:34;;;;;;;6.28;5.00;;;;;;;30.62;36.05;95494.91;5028229;28;20044;-68
2021/08/20 09:46:10;;;;;;;4.97;4.55;;;;;;;30.22;35.47;95491.44;5029477;28;20064;-70
2021/08/20 09:48:50;;;;;;;6.20;4.47;;;;;;;30.99;35.57;95490.94;5028284;28;20069;-71
2021/08/20 09:51:30;;;;;;;4.32;3.92;;;;;;;31.50;34.96;95488.56;5014016;28;20482;-66
2021/08/20 09:54:07;;;;;;;4.93;3.55;;;;;;;31.66;32.30;95485.00;5027904;28;20068;-65
2021/08/20 09:56:33;;;;;;;3.80;3.50;;;;;;;31.32;31.19;95482.72;5027777;28;20048;-67
2021/08/20 09:59:01;;;;;;;4.15;3.20;;;;;;;31.08;32.65;95478.59;5027929;28;20041;-67
2021/08/20 10:01:28;;;;;;;3.00;2.70;;;;;;;31.65;32.07;95482.69;5028019;28;20018;-67
2021/08/20 10:03:57;;;;;;;2.47;2.08;;;;;;;31.83;29.94;95480.25;5033688;28;20100;-74
2021/08/20 10:06:24;;;;;;;2.20;2.00;;;;;;;31.96;30.36;95475.59;5031165;28;20042;-75
2021/08/20 10:08:50;;;;;;;3.30;2.22;;;;;;;31.94;29.00;95464.25;5032078;28;20402;-74
2021/08/20 10:11:17;;;;;;;2.72;2.53;;;;;;;31.14;28.33;95476.88;5031925;28;20068;-75
2021/08/20 10:13:43;;;;;;;2.45;2.17;;;;;;;30.71;29.50;95464.91;5031012;28;20529;-73
2021/08/20 10:16:10;;;;;;;2.55;2.35;;;;;;;30.89;27.96;95458.22;5032596;28;20387;-80
2021/08/20 10:18:37;;;;;;;2.40;2.20;;;;;;;30.57;28.20;95467.94;5032843;28;20072;-67
2021/08/20 10:21:03;;;;;;;2.47;2.28;;;;;;;28.60;31.92;95467.88;5031123;28;20049;-72
2021/08/20 10:23:31;;;;;;;3.90;2.60;;;;;;;28.80;30.70;95473.47;5031526;28;20099;-71
2021/08/20 10:25:57;;;;;;;3.10;2.80;;;;;;;28.26;31.78;95470.69;5030673;28;20040;-73
2021/08/20 10:28:23;;;;;;;3.40;2.30;;;;;;;28.29;32.20;95469.84;5031579;28;20025;-77
2021/08/20 10:30:50;;;;;;;3.50;2.40;;;;;;;29.05;30.23;95466.88;5033875;28;20029;-71
2021/08/20 10:33:32;;;;;;;2.55;2.35;;;;;;;29.88;29.49;95458.75;5013549;28;20415;-77
2021/08/20 10:35:57;;;;;;;2.13;1.92;;;;;;;30.47;29.38;95453.25;5030345;28;20048;-69
2021/08/20 10:38:23;;;;;;;2.15;1.92;;;;;;;30.86;29.31;95473.59;5031016;28;20034;-69
2021/08/20 10:41:14;;;;;;;2.20;2.00;;;;;;;29.77;31.02;95462.47;5031406;28;20569;-80
2021/08/20 10:43:56;;;;;;;2.35;2.15;;;;;;;28.61;30.54;95476.88;5014485;28;20072;-78
2021/08/20 10:46:31;;;;;;;3.20;2.22;;;;;;;28.72;30.65;95472.03;5031775;28;20094;-76
2021/08/20 10:49:17;;;;;;;2.83;2.40;;;;;;;28.85;29.34;95470.25;5016381;28;20048;-74
2021/08/20 10:51:48;;;;;;;2.45;2.25;;;;;;;29.60;29.31;95471.81;5031561;28;20049;-77
2021/08/20 10:54:14;;;;;;;2.60;2.35;;;;;;;30.25;27.84;95452.16;5010840;28;20034;-77
2021/08/20 10:56:39;;;;;;;2.95;2.53;;;;;;;30.67;27.20;95455.19;5012575;28;20038;-78
2021/08/20 10:59:04;;;;;;;2.58;2.30;;;;;;;31.48;26.44;95454.44;5011178;28;20496;-78
2021/08/20 11:01:29;;;;;;;4.32;2.22;;;;;;;31.10;25.90;95476.19;5011758;28;20542;-65
2021/08/20 11:03:55;;;;;;;2.70;2.35;;;;;;;32.19;26.47;95469.03;5012949;28;20053;-67
2021/08/20 11:06:51;;;;;;;2.45;2.25;;;;;;;32.86;24.71;95463.53;5013187;28;20133;-70
2021/08/20 11:09:28;;;;;;;2.38;2.17;;;;;;;32.98;24.94;95467.50;5013146;28;20052;-81
2021/08/20 11:11:53;;;;;;;2.58;2.15;;;;;;;33.51;24.36;95473.28;5030730;28;20519;-76
2021/08/20 11:14:32;;;;;;;2.35;2.20;;;;;;;33.71;24.06;95447.41;5029754;28;20042;-78
2021/08/20 11:16:57;;;;;;;2.30;2.10;;;;;;;33.94;23.54;95471.84;5013605;28;20491;-78
2021/08/20 11:19:48;;;;;;;2.50;2.30;;;;;;;33.86;23.46;95473.25;5014064;28;20071;-78
2021/08/20 11:22:22;;;;;;;2.85;2.17;;;;;;;32.88;24.36;95459.56;5030690;28;20025;-75
2021/08/20 11:25:07;;;;;;;3.10;2.20;;;;;;;30.04;28.72;95475.28;5031048;28;20716;-76
2021/08/20 11:27:33;;;;;;;2.55;2.35;;;;;;;29.44;30.93;95472.47;5030273;28;20064;-88
2021/08/20 11:29:58;;;;;;;2.60;2.40;;;;;;;29.62;29.57;95465.91;5031678;28;20115;-74
2021/08/20 11:32:24;;;;;;;3.60;2.63;;;;;;;29.63;29.81;95459.22;5029881;28;20075;-75
2021/08/20 11:34:53;;;;;;;2.67;2.47;;;;;;;30.15;29.84;95467.66;5031950;28;20049;-77